Terminal Aerodrome Forecast
Issued by NWS Tulsa, OK

Home | Current Version | Previous Version | Text Only | Print | Product List | Glossary On
Versions: 1 2 3 4 5 6 7 8 9 10 11 12 13
280
FTUS44 KTSA 260919 AAB
TAFTUL
TAF AMD
KTUL 260919Z 2609/2706 34015KT P6SM OVC009
      TEMPO 2609/2612 4SM SHRA BR OVC015
     FM261500 34014G24KT P6SM VCSH BKN012
     FM262100 32013G20KT P6SM BKN025
     FM270000 30008KT P6SM BKN035=

USA.gov is the U.S. government's official web portal to all federal, state and local government web resources and services.